KASG

Springdale Municipal Airport

Springdale, Arkansas, USA
METAR KASG 191448Z 27003KT 2SM BR OVC004 00/00 A3019
Observed Flight Rules
Nov-19 @ 14:48 UTC (53 minutes ago) Instrument Flight Rules
Wind Visibility Clouds Conditions
270° at 3 knots 2 miles
  • Overcast at 400' AGL
  • Mist
Temperatures Readings
Current 0°C / 32°F
Dewpoint 0°C / 32°F
Humidity 100%
Altimeter 30.19" Hg
Pressure 1022 hPa
Elevation 412
METAR KASG 191448Z 27003KT 2SM BR OVC004 00/00 A3019
Observed Flight Rules
Nov-19 @ 14:48 UTC
(53 minutes ago)
LIFR
Wind Visibility
270° at 3 knots 2 miles
Clouds
  • Overcast at 400' AGL
Conditions
  • Mist
Temperature Dewpoint
0°C / 32°F 0°C / 32°F
Humidity Altimeter Pressure
100% 30.19" Hg 1022 hPa